sensor_id;sensor_type;location;lat;lon;timestamp;P1;durP1;ratioP1;P2;durP2;ratioP2
7045;SDS011;3564;53.326;10.356;2024-02-21T00:01:18;27.73;;;12.00;;
7045;SDS011;3564;53.326;10.356;2024-02-21T00:03:45;27.53;;;13.17;;
7045;SDS011;3564;53.326;10.356;2024-02-21T00:06:13;23.93;;;12.10;;
7045;SDS011;3564;53.326;10.356;2024-02-21T00:08:39;27.07;;;12.20;;
7045;SDS011;3564;53.326;10.356;2024-02-21T00:11:04;29.07;;;11.50;;
7045;SDS011;3564;53.326;10.356;2024-02-21T00:13:30;24.07;;;12.20;;
7045;SDS011;3564;53.326;10.356;2024-02-21T00:15:56;19.93;;;11.90;;
7045;SDS011;3564;53.326;10.356;2024-02-21T00:18:21;23.80;;;11.90;;
7045;SDS011;3564;53.326;10.356;2024-02-21T00:20:47;23.50;;;12.80;;
7045;SDS011;3564;53.326;10.356;2024-02-21T00:23:13;29.07;;;12.97;;
7045;SDS011;3564;53.326;10.356;2024-02-21T00:25:41;22.50;;;11.57;;
7045;SDS011;3564;53.326;10.356;2024-02-21T00:28:07;22.80;;;11.07;;
7045;SDS011;3564;53.326;10.356;2024-02-21T00:30:32;18.43;;;10.70;;
7045;SDS011;3564;53.326;10.356;2024-02-21T00:32:58;24.07;;;10.37;;
7045;SDS011;3564;53.326;10.356;2024-02-21T00:35:26;22.00;;;10.70;;
7045;SDS011;3564;53.326;10.356;2024-02-21T00:37:52;21.93;;;10.77;;
7045;SDS011;3564;53.326;10.356;2024-02-21T00:40:20;24.57;;;11.10;;
7045;SDS011;3564;53.326;10.356;2024-02-21T00:42:47;21.67;;;9.97;;
7045;SDS011;3564;53.326;10.356;2024-02-21T00:45:12;19.57;;;10.67;;
7045;SDS011;3564;53.326;10.356;2024-02-21T00:47:41;18.90;;;10.27;;
7045;SDS011;3564;53.326;10.356;2024-02-21T00:50:06;20.10;;;10.13;;
7045;SDS011;3564;53.326;10.356;2024-02-21T00:52:32;17.57;;;10.53;;
7045;SDS011;3564;53.326;10.356;2024-02-21T00:54:58;21.57;;;10.30;;
7045;SDS011;3564;53.326;10.356;2024-02-21T00:57:24;25.03;;;11.43;;
7045;SDS011;3564;53.326;10.356;2024-02-21T00:59:50;20.10;;;9.93;;
7045;SDS011;3564;53.326;10.356;2024-02-21T01:02:19;22.80;;;10.83;;
7045;SDS011;3564;53.326;10.356;2024-02-21T01:04:44;19.43;;;10.97;;
7045;SDS011;3564;53.326;10.356;2024-02-21T01:07:16;18.67;;;10.57;;
7045;SDS011;3564;53.326;10.356;2024-02-21T01:09:41;21.53;;;10.63;;
7045;SDS011;3564;53.326;10.356;2024-02-21T01:12:07;17.67;;;9.77;;
7045;SDS011;3564;53.326;10.356;2024-02-21T01:14:33;24.37;;;11.70;;
7045;SDS011;3564;53.326;10.356;2024-02-21T01:17:01;20.17;;;10.90;;
7045;SDS011;3564;53.326;10.356;2024-02-21T01:19:27;22.23;;;12.03;;
7045;SDS011;3564;53.326;10.356;2024-02-21T01:21:52;21.83;;;12.30;;
7045;SDS011;3564;53.326;10.356;2024-02-21T01:24:18;23.10;;;12.50;;
7045;SDS011;3564;53.326;10.356;2024-02-21T01:26:43;21.60;;;11.33;;
7045;SDS011;3564;53.326;10.356;2024-02-21T01:29:09;23.40;;;12.33;;
7045;SDS011;3564;53.326;10.356;2024-02-21T01:31:37;18.97;;;11.20;;
7045;SDS011;3564;53.326;10.356;2024-02-21T01:34:03;22.87;;;12.10;;
7045;SDS011;3564;53.326;10.356;2024-02-21T01:36:28;25.47;;;13.23;;
7045;SDS011;3564;53.326;10.356;2024-02-21T01:38:54;21.37;;;13.23;;
7045;SDS011;3564;53.326;10.356;2024-02-21T01:41:20;27.13;;;13.53;;
7045;SDS011;3564;53.326;10.356;2024-02-21T01:43:45;21.70;;;12.80;;
7045;SDS011;3564;53.326;10.356;2024-02-21T01:46:11;24.50;;;12.43;;
7045;SDS011;3564;53.326;10.356;2024-02-21T01:48:37;24.97;;;13.07;;
7045;SDS011;3564;53.326;10.356;2024-02-21T01:51:02;24.27;;;12.80;;
7045;SDS011;3564;53.326;10.356;2024-02-21T01:53:30;24.73;;;13.17;;
7045;SDS011;3564;53.326;10.356;2024-02-21T01:56:02;23.53;;;12.73;;
7045;SDS011;3564;53.326;10.356;2024-02-21T01:58:30;23.30;;;12.63;;
7045;SDS011;3564;53.326;10.356;2024-02-21T02:00:56;32.03;;;13.20;;
7045;SDS011;3564;53.326;10.356;2024-02-21T02:03:22;24.13;;;13.37;;
7045;SDS011;3564;53.326;10.356;2024-02-21T02:05:50;29.17;;;14.97;;
7045;SDS011;3564;53.326;10.356;2024-02-21T02:08:17;24.73;;;13.87;;
7045;SDS011;3564;53.326;10.356;2024-02-21T02:10:44;25.13;;;12.40;;
7045;SDS011;3564;53.326;10.356;2024-02-21T02:13:13;24.67;;;13.97;;
7045;SDS011;3564;53.326;10.356;2024-02-21T02:15:45;25.63;;;14.23;;
7045;SDS011;3564;53.326;10.356;2024-02-21T02:18:12;26.97;;;14.53;;
7045;SDS011;3564;53.326;10.356;2024-02-21T02:20:42;23.50;;;13.50;;
7045;SDS011;3564;53.326;10.356;2024-02-21T02:25:46;29.03;;;14.47;;
7045;SDS011;3564;53.326;10.356;2024-02-21T02:28:14;29.13;;;14.50;;
7045;SDS011;3564;53.326;10.356;2024-02-21T02:30:40;21.43;;;13.57;;
7045;SDS011;3564;53.326;10.356;2024-02-21T02:33:09;28.47;;;14.33;;
7045;SDS011;3564;53.326;10.356;2024-02-21T02:35:35;28.63;;;15.23;;
7045;SDS011;3564;53.326;10.356;2024-02-21T02:38:01;24.77;;;14.83;;
7045;SDS011;3564;53.326;10.356;2024-02-21T02:40:30;25.07;;;14.47;;
7045;SDS011;3564;53.326;10.356;2024-02-21T02:42:58;26.30;;;14.10;;
7045;SDS011;3564;53.326;10.356;2024-02-21T02:45:26;27.43;;;14.50;;
7045;SDS011;3564;53.326;10.356;2024-02-21T02:47:53;24.93;;;14.13;;
7045;SDS011;3564;53.326;10.356;2024-02-21T02:50:33;26.53;;;14.20;;
7045;SDS011;3564;53.326;10.356;2024-02-21T02:52:59;23.03;;;14.30;;
7045;SDS011;3564;53.326;10.356;2024-02-21T02:55:24;26.67;;;14.33;;
7045;SDS011;3564;53.326;10.356;2024-02-21T02:57:51;25.80;;;14.20;;
7045;SDS011;3564;53.326;10.356;2024-02-21T03:00:19;29.73;;;15.00;;
7045;SDS011;3564;53.326;10.356;2024-02-21T03:02:51;24.87;;;14.73;;
7045;SDS011;3564;53.326;10.356;2024-02-21T03:05:18;26.87;;;14.33;;
7045;SDS011;3564;53.326;10.356;2024-02-21T03:07:48;24.87;;;14.20;;
7045;SDS011;3564;53.326;10.356;2024-02-21T03:10:16;25.77;;;14.80;;
7045;SDS011;3564;53.326;10.356;2024-02-21T03:12:42;24.73;;;15.33;;
7045;SDS011;3564;53.326;10.356;2024-02-21T03:15:08;29.40;;;16.07;;
7045;SDS011;3564;53.326;10.356;2024-02-21T03:17:34;24.90;;;14.50;;
7045;SDS011;3564;53.326;10.356;2024-02-21T03:20:00;30.10;;;16.07;;
7045;SDS011;3564;53.326;10.356;2024-02-21T03:22:29;28.30;;;15.70;;
7045;SDS011;3564;53.326;10.356;2024-02-21T03:24:55;25.33;;;14.50;;
7045;SDS011;3564;53.326;10.356;2024-02-21T03:27:21;24.03;;;15.30;;
7045;SDS011;3564;53.326;10.356;2024-02-21T03:29:47;26.43;;;15.20;;
7045;SDS011;3564;53.326;10.356;2024-02-21T03:32:15;33.57;;;15.33;;
7045;SDS011;3564;53.326;10.356;2024-02-21T03:34:41;26.10;;;15.97;;
7045;SDS011;3564;53.326;10.356;2024-02-21T03:37:13;25.57;;;15.63;;
7045;SDS011;3564;53.326;10.356;2024-02-21T03:39:39;29.60;;;15.10;;
7045;SDS011;3564;53.326;10.356;2024-02-21T03:42:07;25.90;;;15.17;;
7045;SDS011;3564;53.326;10.356;2024-02-21T03:44:36;30.10;;;15.73;;
7045;SDS011;3564;53.326;10.356;2024-02-21T03:47:01;28.83;;;13.90;;
7045;SDS011;3564;53.326;10.356;2024-02-21T03:49:30;29.00;;;15.47;;
7045;SDS011;3564;53.326;10.356;2024-02-21T03:51:59;28.57;;;14.30;;
7045;SDS011;3564;53.326;10.356;2024-02-21T03:54:24;29.50;;;14.77;;
7045;SDS011;3564;53.326;10.356;2024-02-21T03:56:53;30.67;;;15.30;;
7045;SDS011;3564;53.326;10.356;2024-02-21T03:59:19;27.37;;;14.20;;
7045;SDS011;3564;53.326;10.356;2024-02-21T04:01:51;26.00;;;14.40;;
7045;SDS011;3564;53.326;10.356;2024-02-21T04:04:19;27.40;;;14.53;;
7045;SDS011;3564;53.326;10.356;2024-02-21T04:06:48;30.20;;;14.50;;
7045;SDS011;3564;53.326;10.356;2024-02-21T04:09:14;25.10;;;13.70;;
7045;SDS011;3564;53.326;10.356;2024-02-21T04:11:40;30.03;;;14.33;;
7045;SDS011;3564;53.326;10.356;2024-02-21T04:14:06;26.90;;;14.80;;
7045;SDS011;3564;53.326;10.356;2024-02-21T04:16:32;25.70;;;13.93;;
7045;SDS011;3564;53.326;10.356;2024-02-21T04:18:57;30.50;;;15.00;;
7045;SDS011;3564;53.326;10.356;2024-02-21T04:21:23;24.37;;;13.30;;
7045;SDS011;3564;53.326;10.356;2024-02-21T04:23:49;26.40;;;15.03;;
7045;SDS011;3564;53.326;10.356;2024-02-21T04:26:15;22.63;;;13.50;;
7045;SDS011;3564;53.326;10.356;2024-02-21T04:28:40;26.10;;;14.17;;
7045;SDS011;3564;53.326;10.356;2024-02-21T04:31:06;30.73;;;15.17;;
7045;SDS011;3564;53.326;10.356;2024-02-21T04:33:32;26.17;;;14.50;;
7045;SDS011;3564;53.326;10.356;2024-02-21T04:36:00;26.87;;;13.80;;
7045;SDS011;3564;53.326;10.356;2024-02-21T04:38:30;24.03;;;13.37;;
7045;SDS011;3564;53.326;10.356;2024-02-21T04:40:56;26.47;;;13.93;;
7045;SDS011;3564;53.326;10.356;2024-02-21T04:43:32;23.73;;;13.50;;
7045;SDS011;3564;53.326;10.356;2024-02-21T04:45:57;24.43;;;13.47;;
7045;SDS011;3564;53.326;10.356;2024-02-21T04:48:23;25.27;;;13.17;;
7045;SDS011;3564;53.326;10.356;2024-02-21T04:50:49;21.87;;;13.43;;
7045;SDS011;3564;53.326;10.356;2024-02-21T04:53:17;23.27;;;13.33;;
7045;SDS011;3564;53.326;10.356;2024-02-21T04:55:43;22.67;;;13.50;;
7045;SDS011;3564;53.326;10.356;2024-02-21T04:58:09;22.23;;;13.00;;
7045;SDS011;3564;53.326;10.356;2024-02-21T05:00:34;27.57;;;13.33;;
7045;SDS011;3564;53.326;10.356;2024-02-21T05:03:00;25.33;;;13.97;;
7045;SDS011;3564;53.326;10.356;2024-02-21T05:05:26;25.80;;;13.10;;
7045;SDS011;3564;53.326;10.356;2024-02-21T05:07:51;23.00;;;13.40;;
7045;SDS011;3564;53.326;10.356;2024-02-21T05:10:17;26.90;;;12.90;;
7045;SDS011;3564;53.326;10.356;2024-02-21T05:12:46;27.37;;;13.30;;
7045;SDS011;3564;53.326;10.356;2024-02-21T05:15:11;24.60;;;12.87;;
7045;SDS011;3564;53.326;10.356;2024-02-21T05:17:37;19.27;;;11.53;;
7045;SDS011;3564;53.326;10.356;2024-02-21T05:20:03;18.43;;;11.93;;
7045;SDS011;3564;53.326;10.356;2024-02-21T05:22:29;24.43;;;12.93;;
7045;SDS011;3564;53.326;10.356;2024-02-21T05:24:54;20.90;;;12.13;;
7045;SDS011;3564;53.326;10.356;2024-02-21T05:27:20;19.47;;;12.57;;
7045;SDS011;3564;53.326;10.356;2024-02-21T05:29:46;16.57;;;11.20;;
7045;SDS011;3564;53.326;10.356;2024-02-21T05:32:13;21.03;;;11.40;;
7045;SDS011;3564;53.326;10.356;2024-02-21T05:34:38;17.90;;;11.73;;
7045;SDS011;3564;53.326;10.356;2024-02-21T05:37:04;20.33;;;12.10;;
7045;SDS011;3564;53.326;10.356;2024-02-21T05:39:30;18.00;;;11.20;;
7045;SDS011;3564;53.326;10.356;2024-02-21T05:41:56;20.73;;;11.37;;
7045;SDS011;3564;53.326;10.356;2024-02-21T05:44:24;15.17;;;11.00;;
7045;SDS011;3564;53.326;10.356;2024-02-21T05:46:51;18.67;;;11.43;;
7045;SDS011;3564;53.326;10.356;2024-02-21T05:49:17;16.17;;;10.83;;
7045;SDS011;3564;53.326;10.356;2024-02-21T05:51:43;19.07;;;11.10;;
7045;SDS011;3564;53.326;10.356;2024-02-21T05:54:08;16.00;;;11.07;;
7045;SDS011;3564;53.326;10.356;2024-02-21T05:56:37;15.80;;;11.07;;
7045;SDS011;3564;53.326;10.356;2024-02-21T05:59:02;16.30;;;10.63;;
7045;SDS011;3564;53.326;10.356;2024-02-21T06:01:31;20.20;;;10.27;;
7045;SDS011;3564;53.326;10.356;2024-02-21T06:03:56;16.97;;;10.67;;
7045;SDS011;3564;53.326;10.356;2024-02-21T06:06:22;15.83;;;10.23;;
7045;SDS011;3564;53.326;10.356;2024-02-21T06:08:48;13.00;;;9.10;;
7045;SDS011;3564;53.326;10.356;2024-02-21T06:11:13;19.03;;;10.70;;
7045;SDS011;3564;53.326;10.356;2024-02-21T06:13:40;13.87;;;9.10;;
7045;SDS011;3564;53.326;10.356;2024-02-21T06:16:06;14.77;;;9.20;;
7045;SDS011;3564;53.326;10.356;2024-02-21T06:18:32;16.10;;;9.87;;
7045;SDS011;3564;53.326;10.356;2024-02-21T06:21:00;14.63;;;9.33;;
7045;SDS011;3564;53.326;10.356;2024-02-21T06:23:28;15.20;;;9.23;;
7045;SDS011;3564;53.326;10.356;2024-02-21T06:25:54;15.00;;;9.00;;
7045;SDS011;3564;53.326;10.356;2024-02-21T06:28:19;13.43;;;9.13;;
7045;SDS011;3564;53.326;10.356;2024-02-21T06:30:45;13.17;;;8.80;;
7045;SDS011;3564;53.326;10.356;2024-02-21T06:33:11;12.07;;;8.23;;
7045;SDS011;3564;53.326;10.356;2024-02-21T06:35:36;12.00;;;8.17;;
7045;SDS011;3564;53.326;10.356;2024-02-21T06:38:06;13.50;;;8.77;;
7045;SDS011;3564;53.326;10.356;2024-02-21T06:40:32;14.87;;;9.17;;
7045;SDS011;3564;53.326;10.356;2024-02-21T06:43:03;13.13;;;8.13;;
7045;SDS011;3564;53.326;10.356;2024-02-21T06:45:29;13.40;;;7.83;;
7045;SDS011;3564;53.326;10.356;2024-02-21T06:47:55;13.40;;;7.57;;
7045;SDS011;3564;53.326;10.356;2024-02-21T06:50:20;11.07;;;7.77;;
7045;SDS011;3564;53.326;10.356;2024-02-21T06:52:49;13.10;;;7.80;;
7045;SDS011;3564;53.326;10.356;2024-02-21T06:55:15;10.83;;;7.03;;
7045;SDS011;3564;53.326;10.356;2024-02-21T06:57:44;10.57;;;7.40;;
7045;SDS011;3564;53.326;10.356;2024-02-21T07:00:10;11.93;;;6.93;;
7045;SDS011;3564;53.326;10.356;2024-02-21T07:02:36;9.27;;;7.37;;
7045;SDS011;3564;53.326;10.356;2024-02-21T07:05:05;9.63;;;6.70;;
7045;SDS011;3564;53.326;10.356;2024-02-21T07:07:30;10.60;;;6.60;;
7045;SDS011;3564;53.326;10.356;2024-02-21T07:09:56;10.13;;;6.97;;
7045;SDS011;3564;53.326;10.356;2024-02-21T07:12:25;9.00;;;6.23;;
7045;SDS011;3564;53.326;10.356;2024-02-21T07:14:50;7.33;;;6.10;;
7045;SDS011;3564;53.326;10.356;2024-02-21T07:17:16;8.53;;;6.00;;
7045;SDS011;3564;53.326;10.356;2024-02-21T07:19:41;7.50;;;5.37;;
7045;SDS011;3564;53.326;10.356;2024-02-21T07:22:07;6.50;;;4.97;;
7045;SDS011;3564;53.326;10.356;2024-02-21T07:24:35;8.80;;;6.37;;
7045;SDS011;3564;53.326;10.356;2024-02-21T07:27:02;7.83;;;5.00;;
7045;SDS011;3564;53.326;10.356;2024-02-21T07:29:29;9.87;;;5.33;;
7045;SDS011;3564;53.326;10.356;2024-02-21T07:31:58;6.13;;;4.97;;
7045;SDS011;3564;53.326;10.356;2024-02-21T07:34:24;5.13;;;4.40;;
7045;SDS011;3564;53.326;10.356;2024-02-21T07:36:49;5.60;;;4.60;;
7045;SDS011;3564;53.326;10.356;2024-02-21T07:39:15;8.83;;;5.27;;
7045;SDS011;3564;53.326;10.356;2024-02-21T07:41:44;5.70;;;4.20;;
7045;SDS011;3564;53.326;10.356;2024-02-21T07:44:12;5.80;;;4.70;;
7045;SDS011;3564;53.326;10.356;2024-02-21T07:46:40;6.37;;;4.33;;
7045;SDS011;3564;53.326;10.356;2024-02-21T07:49:06;6.03;;;4.23;;
7045;SDS011;3564;53.326;10.356;2024-02-21T07:51:31;6.97;;;4.63;;
7045;SDS011;3564;53.326;10.356;2024-02-21T07:53:57;7.27;;;4.87;;
7045;SDS011;3564;53.326;10.356;2024-02-21T07:56:23;6.53;;;4.20;;
7045;SDS011;3564;53.326;10.356;2024-02-21T07:58:48;5.70;;;4.90;;
7045;SDS011;3564;53.326;10.356;2024-02-21T08:01:20;6.47;;;4.87;;
7045;SDS011;3564;53.326;10.356;2024-02-21T08:03:46;5.23;;;4.67;;
7045;SDS011;3564;53.326;10.356;2024-02-21T08:06:12;5.07;;;4.50;;
7045;SDS011;3564;53.326;10.356;2024-02-21T08:08:38;5.40;;;4.50;;
7045;SDS011;3564;53.326;10.356;2024-02-21T08:11:04;5.33;;;4.10;;
7045;SDS011;3564;53.326;10.356;2024-02-21T08:13:31;5.87;;;4.60;;
7045;SDS011;3564;53.326;10.356;2024-02-21T08:15:56;6.87;;;4.90;;
7045;SDS011;3564;53.326;10.356;2024-02-21T08:18:25;5.00;;;4.10;;
7045;SDS011;3564;53.326;10.356;2024-02-21T08:20:50;6.43;;;4.53;;
7045;SDS011;3564;53.326;10.356;2024-02-21T08:23:16;6.10;;;4.83;;
7045;SDS011;3564;53.326;10.356;2024-02-21T08:25:43;5.27;;;4.40;;
7045;SDS011;3564;53.326;10.356;2024-02-21T08:28:09;5.47;;;4.27;;
7045;SDS011;3564;53.326;10.356;2024-02-21T08:30:34;6.60;;;5.07;;
7045;SDS011;3564;53.326;10.356;2024-02-21T08:33:00;6.90;;;4.37;;
7045;SDS011;3564;53.326;10.356;2024-02-21T08:35:26;5.73;;;4.43;;
7045;SDS011;3564;53.326;10.356;2024-02-21T08:37:51;6.17;;;4.53;;
7045;SDS011;3564;53.326;10.356;2024-02-21T08:40:17;5.77;;;4.33;;
7045;SDS011;3564;53.326;10.356;2024-02-21T08:42:45;4.63;;;4.03;;
7045;SDS011;3564;53.326;10.356;2024-02-21T08:45:11;6.30;;;4.43;;
7045;SDS011;3564;53.326;10.356;2024-02-21T08:47:40;4.83;;;4.17;;
7045;SDS011;3564;53.326;10.356;2024-02-21T08:50:06;7.20;;;4.67;;
7045;SDS011;3564;53.326;10.356;2024-02-21T08:52:32;6.03;;;4.33;;
7045;SDS011;3564;53.326;10.356;2024-02-21T08:54:58;5.30;;;4.37;;
7045;SDS011;3564;53.326;10.356;2024-02-21T08:57:24;6.37;;;4.60;;
7045;SDS011;3564;53.326;10.356;2024-02-21T08:59:52;5.83;;;4.53;;
7045;SDS011;3564;53.326;10.356;2024-02-21T09:02:17;5.07;;;4.30;;
7045;SDS011;3564;53.326;10.356;2024-02-21T09:04:46;4.63;;;4.13;;
7045;SDS011;3564;53.326;10.356;2024-02-21T09:07:12;5.57;;;4.67;;
7045;SDS011;3564;53.326;10.356;2024-02-21T09:09:37;5.07;;;4.50;;
7045;SDS011;3564;53.326;10.356;2024-02-21T09:12:07;5.73;;;4.73;;
7045;SDS011;3564;53.326;10.356;2024-02-21T09:14:37;5.53;;;4.90;;
7045;SDS011;3564;53.326;10.356;2024-02-21T09:17:06;5.40;;;4.67;;
7045;SDS011;3564;53.326;10.356;2024-02-21T09:19:34;6.67;;;5.00;;
7045;SDS011;3564;53.326;10.356;2024-02-21T09:22:00;6.17;;;4.70;;
7045;SDS011;3564;53.326;10.356;2024-02-21T09:24:28;5.93;;;5.27;;
7045;SDS011;3564;53.326;10.356;2024-02-21T09:26:54;6.03;;;5.40;;
7045;SDS011;3564;53.326;10.356;2024-02-21T09:29:22;6.47;;;5.63;;
7045;SDS011;3564;53.326;10.356;2024-02-21T09:31:48;6.67;;;5.27;;
7045;SDS011;3564;53.326;10.356;2024-02-21T09:34:16;6.53;;;5.00;;
7045;SDS011;3564;53.326;10.356;2024-02-21T09:36:42;7.20;;;5.60;;
7045;SDS011;3564;53.326;10.356;2024-02-21T09:39:08;8.53;;;5.73;;
7045;SDS011;3564;53.326;10.356;2024-02-21T09:41:36;10.40;;;5.90;;
7045;SDS011;3564;53.326;10.356;2024-02-21T09:44:06;7.30;;;6.00;;
7045;SDS011;3564;53.326;10.356;2024-02-21T09:46:39;8.07;;;5.77;;
7045;SDS011;3564;53.326;10.356;2024-02-21T09:49:30;7.73;;;6.10;;
7045;SDS011;3564;53.326;10.356;2024-02-21T09:51:57;9.50;;;7.20;;
7045;SDS011;3564;53.326;10.356;2024-02-21T09:54:30;9.23;;;7.10;;
7045;SDS011;3564;53.326;10.356;2024-02-21T09:57:01;10.03;;;7.30;;
7045;SDS011;3564;53.326;10.356;2024-02-21T09:59:28;11.27;;;7.63;;
7045;SDS011;3564;53.326;10.356;2024-02-21T10:01:56;10.57;;;7.90;;
7045;SDS011;3564;53.326;10.356;2024-02-21T10:04:24;13.47;;;8.43;;
7045;SDS011;3564;53.326;10.356;2024-02-21T10:06:49;13.93;;;9.63;;
7045;SDS011;3564;53.326;10.356;2024-02-21T10:09:28;13.23;;;8.73;;
7045;SDS011;3564;53.326;10.356;2024-02-21T10:11:54;14.43;;;9.57;;
7045;SDS011;3564;53.326;10.356;2024-02-21T10:14:42;13.90;;;9.90;;
7045;SDS011;3564;53.326;10.356;2024-02-21T10:17:08;18.00;;;11.10;;
7045;SDS011;3564;53.326;10.356;2024-02-21T10:19:43;20.77;;;11.73;;
7045;SDS011;3564;53.326;10.356;2024-02-21T10:22:08;21.33;;;12.13;;
7045;SDS011;3564;53.326;10.356;2024-02-21T10:24:35;22.73;;;11.20;;
7045;SDS011;3564;53.326;10.356;2024-02-21T10:27:03;17.67;;;12.13;;
7045;SDS011;3564;53.326;10.356;2024-02-21T10:29:36;19.33;;;11.70;;
7045;SDS011;3564;53.326;10.356;2024-02-21T10:34:41;19.07;;;11.87;;
7045;SDS011;3564;53.326;10.356;2024-02-21T10:37:08;17.97;;;11.43;;
7045;SDS011;3564;53.326;10.356;2024-02-21T10:39:38;18.63;;;12.13;;
7045;SDS011;3564;53.326;10.356;2024-02-21T10:42:11;18.43;;;11.27;;
7045;SDS011;3564;53.326;10.356;2024-02-21T10:44:37;18.23;;;11.30;;
7045;SDS011;3564;53.326;10.356;2024-02-21T10:47:10;19.43;;;10.80;;
7045;SDS011;3564;53.326;10.356;2024-02-21T10:49:40;18.00;;;10.97;;
7045;SDS011;3564;53.326;10.356;2024-02-21T10:55:26;18.40;;;10.43;;
7045;SDS011;3564;53.326;10.356;2024-02-21T10:58:03;16.17;;;9.10;;
7045;SDS011;3564;53.326;10.356;2024-02-21T11:00:29;17.23;;;9.73;;
7045;SDS011;3564;53.326;10.356;2024-02-21T11:02:59;15.00;;;9.83;;
7045;SDS011;3564;53.326;10.356;2024-02-21T11:05:25;19.27;;;9.60;;
7045;SDS011;3564;53.326;10.356;2024-02-21T11:07:58;14.40;;;9.73;;
7045;SDS011;3564;53.326;10.356;2024-02-21T11:10:27;16.23;;;8.67;;
7045;SDS011;3564;53.326;10.356;2024-02-21T11:12:53;14.03;;;8.27;;
7045;SDS011;3564;53.326;10.356;2024-02-21T11:15:30;14.83;;;8.13;;
7045;SDS011;3564;53.326;10.356;2024-02-21T11:17:56;14.87;;;7.77;;
7045;SDS011;3564;53.326;10.356;2024-02-21T11:20:34;11.63;;;6.93;;
7045;SDS011;3564;53.326;10.356;2024-02-21T11:23:00;11.67;;;7.10;;
7045;SDS011;3564;53.326;10.356;2024-02-21T11:25:29;10.30;;;7.40;;
7045;SDS011;3564;53.326;10.356;2024-02-21T11:27:59;10.53;;;7.13;;
7045;SDS011;3564;53.326;10.356;2024-02-21T11:30:31;13.17;;;7.13;;
7045;SDS011;3564;53.326;10.356;2024-02-21T11:33:05;13.40;;;7.00;;
7045;SDS011;3564;53.326;10.356;2024-02-21T11:35:41;11.43;;;6.77;;
7045;SDS011;3564;53.326;10.356;2024-02-21T11:38:10;12.50;;;7.57;;
7045;SDS011;3564;53.326;10.356;2024-02-21T11:40:39;12.33;;;7.73;;
7045;SDS011;3564;53.326;10.356;2024-02-21T11:43:06;14.30;;;8.53;;
7045;SDS011;3564;53.326;10.356;2024-02-21T11:45:35;11.67;;;6.97;;
7045;SDS011;3564;53.326;10.356;2024-02-21T11:48:01;11.90;;;7.30;;
7045;SDS011;3564;53.326;10.356;2024-02-21T11:50:29;11.37;;;7.50;;
7045;SDS011;3564;53.326;10.356;2024-02-21T11:52:58;14.30;;;8.10;;
7045;SDS011;3564;53.326;10.356;2024-02-21T11:55:24;12.57;;;8.37;;
7045;SDS011;3564;53.326;10.356;2024-02-21T11:57:49;10.63;;;7.47;;
7045;SDS011;3564;53.326;10.356;2024-02-21T12:00:16;18.50;;;9.07;;
7045;SDS011;3564;53.326;10.356;2024-02-21T12:02:52;14.17;;;8.93;;
7045;SDS011;3564;53.326;10.356;2024-02-21T12:05:29;12.50;;;8.63;;
7045;SDS011;3564;53.326;10.356;2024-02-21T12:07:55;15.30;;;8.47;;
7045;SDS011;3564;53.326;10.356;2024-02-21T12:10:23;13.40;;;8.90;;
7045;SDS011;3564;53.326;10.356;2024-02-21T12:12:51;15.60;;;9.23;;
7045;SDS011;3564;53.326;10.356;2024-02-21T12:15:17;13.00;;;8.60;;
7045;SDS011;3564;53.326;10.356;2024-02-21T12:17:44;16.60;;;9.27;;
7045;SDS011;3564;53.326;10.356;2024-02-21T12:20:12;15.30;;;9.87;;
7045;SDS011;3564;53.326;10.356;2024-02-21T12:22:43;14.43;;;9.87;;
7045;SDS011;3564;53.326;10.356;2024-02-21T12:25:24;15.97;;;10.83;;
7045;SDS011;3564;53.326;10.356;2024-02-21T12:27:55;17.30;;;11.30;;
7045;SDS011;3564;53.326;10.356;2024-02-21T12:30:21;20.70;;;11.43;;
7045;SDS011;3564;53.326;10.356;2024-02-21T12:32:47;19.20;;;11.80;;
7045;SDS011;3564;53.326;10.356;2024-02-21T12:35:13;15.17;;;11.00;;
7045;SDS011;3564;53.326;10.356;2024-02-21T12:37:39;22.93;;;12.50;;
7045;SDS011;3564;53.326;10.356;2024-02-21T12:40:05;15.73;;;11.73;;
7045;SDS011;3564;53.326;10.356;2024-02-21T12:42:34;18.73;;;11.73;;
7045;SDS011;3564;53.326;10.356;2024-02-21T12:45:09;20.13;;;11.80;;
7045;SDS011;3564;53.326;10.356;2024-02-21T12:47:34;15.90;;;11.43;;
7045;SDS011;3564;53.326;10.356;2024-02-21T12:50:00;18.87;;;12.03;;
7045;SDS011;3564;53.326;10.356;2024-02-21T12:52:28;17.87;;;11.30;;
7045;SDS011;3564;53.326;10.356;2024-02-21T12:54:53;16.13;;;10.83;;
7045;SDS011;3564;53.326;10.356;2024-02-21T12:57:21;17.10;;;11.60;;
7045;SDS011;3564;53.326;10.356;2024-02-21T12:59:47;17.00;;;10.97;;
7045;SDS011;3564;53.326;10.356;2024-02-21T13:02:12;18.13;;;11.27;;
7045;SDS011;3564;53.326;10.356;2024-02-21T13:04:41;15.33;;;11.03;;
7045;SDS011;3564;53.326;10.356;2024-02-21T13:07:07;17.43;;;10.90;;
7045;SDS011;3564;53.326;10.356;2024-02-21T13:09:33;15.83;;;9.77;;
7045;SDS011;3564;53.326;10.356;2024-02-21T13:11:58;20.43;;;10.07;;
7045;SDS011;3564;53.326;10.356;2024-02-21T13:14:27;12.87;;;8.57;;
7045;SDS011;3564;53.326;10.356;2024-02-21T13:16:56;14.60;;;8.97;;
7045;SDS011;3564;53.326;10.356;2024-02-21T13:19:21;13.37;;;9.67;;
7045;SDS011;3564;53.326;10.356;2024-02-21T13:21:47;13.13;;;9.20;;
7045;SDS011;3564;53.326;10.356;2024-02-21T13:24:13;13.80;;;9.40;;
7045;SDS011;3564;53.326;10.356;2024-02-21T13:26:38;12.77;;;8.77;;
7045;SDS011;3564;53.326;10.356;2024-02-21T13:29:04;14.57;;;9.30;;
7045;SDS011;3564;53.326;10.356;2024-02-21T13:31:32;16.93;;;9.10;;
7045;SDS011;3564;53.326;10.356;2024-02-21T13:33:58;13.70;;;8.23;;
7045;SDS011;3564;53.326;10.356;2024-02-21T13:36:23;15.17;;;8.23;;
7045;SDS011;3564;53.326;10.356;2024-02-21T13:38:49;12.30;;;7.87;;
7045;SDS011;3564;53.326;10.356;2024-02-21T13:41:16;13.63;;;7.93;;
7045;SDS011;3564;53.326;10.356;2024-02-21T13:43:42;15.23;;;7.90;;
7045;SDS011;3564;53.326;10.356;2024-02-21T13:46:11;11.07;;;8.17;;
7045;SDS011;3564;53.326;10.356;2024-02-21T13:48:37;14.70;;;7.97;;
7045;SDS011;3564;53.326;10.356;2024-02-21T13:51:02;14.07;;;6.83;;
7045;SDS011;3564;53.326;10.356;2024-02-21T13:53:28;13.70;;;6.73;;
7045;SDS011;3564;53.326;10.356;2024-02-21T13:55:54;11.33;;;6.83;;
7045;SDS011;3564;53.326;10.356;2024-02-21T13:58:19;11.83;;;6.53;;
7045;SDS011;3564;53.326;10.356;2024-02-21T14:00:46;10.47;;;7.17;;
7045;SDS011;3564;53.326;10.356;2024-02-21T14:03:11;8.77;;;6.57;;
7045;SDS011;3564;53.326;10.356;2024-02-21T14:05:43;9.07;;;6.10;;
7045;SDS011;3564;53.326;10.356;2024-02-21T14:08:08;13.27;;;6.63;;
7045;SDS011;3564;53.326;10.356;2024-02-21T14:10:34;12.97;;;6.70;;
7045;SDS011;3564;53.326;10.356;2024-02-21T14:13:00;8.83;;;6.20;;
7045;SDS011;3564;53.326;10.356;2024-02-21T14:15:25;8.93;;;6.43;;
7045;SDS011;3564;53.326;10.356;2024-02-21T14:17:51;9.30;;;5.43;;
7045;SDS011;3564;53.326;10.356;2024-02-21T14:20:17;9.37;;;5.70;;
7045;SDS011;3564;53.326;10.356;2024-02-21T14:22:45;10.10;;;5.50;;
7045;SDS011;3564;53.326;10.356;2024-02-21T14:25:11;12.00;;;5.57;;
7045;SDS011;3564;53.326;10.356;2024-02-21T14:27:37;8.97;;;5.00;;
7045;SDS011;3564;53.326;10.356;2024-02-21T14:30:05;11.77;;;5.27;;
7045;SDS011;3564;53.326;10.356;2024-02-21T14:32:35;6.87;;;5.43;;
7045;SDS011;3564;53.326;10.356;2024-02-21T14:35:01;12.83;;;5.10;;
7045;SDS011;3564;53.326;10.356;2024-02-21T14:37:30;10.07;;;4.60;;
7045;SDS011;3564;53.326;10.356;2024-02-21T14:39:59;9.03;;;4.70;;
7045;SDS011;3564;53.326;10.356;2024-02-21T14:42:25;8.00;;;4.20;;
7045;SDS011;3564;53.326;10.356;2024-02-21T14:44:53;7.27;;;4.03;;
7045;SDS011;3564;53.326;10.356;2024-02-21T14:47:29;5.80;;;3.70;;
7045;SDS011;3564;53.326;10.356;2024-02-21T14:49:55;8.23;;;4.17;;
7045;SDS011;3564;53.326;10.356;2024-02-21T14:52:21;5.57;;;3.90;;